Time;durP1;ratioP1;P1;durP2;ratioP2;P2;SDS_P1;SDS_P2;PMS_P1;PMS_P2;Temp;Humidity;BMP_temperature;BMP_pressure;BME280_temperature;BME280_humidity;BME280_pressure;Samples;Min_cycle;Max_cycle;Signal;HPM_P1;HPM_P2
2023/08/25 04:09:13;;;;;;;1.47;1.37;;;21.40;99.90;;;;;;4972923;28;20448;-68
2023/08/25 04:11:38;;;;;;;1.67;1.50;;;21.40;99.90;;;;;;4974705;28;20394;-68
2023/08/25 04:14:04;;;;;;;1.60;1.50;;;21.30;99.90;;;;;;4978182;28;20403;-68
2023/08/25 04:16:29;;;;;;;1.57;1.47;;;21.30;99.90;;;;;;4978226;28;20227;-68
2023/08/25 04:18:55;;;;;;;1.57;1.47;;;21.30;99.90;;;;;;4978543;28;20227;-68
2023/08/25 04:21:20;;;;;;;1.27;1.20;;;21.30;99.90;;;;;;4978380;28;20206;-69
2023/08/25 04:23:46;;;;;;;1.23;1.23;;;21.20;99.90;;;;;;4977852;28;20586;-68
2023/08/25 04:26:11;;;;;;;1.60;1.50;;;21.20;99.90;;;;;;4978352;28;20267;-68
2023/08/25 04:28:37;;;;;;;1.57;1.47;;;21.20;99.90;;;;;;4978292;28;20168;-68
2023/08/25 04:31:03;;;;;;;1.60;1.60;;;21.30;99.90;;;;;;4956278;28;20227;-67
2023/08/25 04:33:28;;;;;;;1.50;1.40;;;21.20;99.90;;;;;;4977666;28;20176;-68
2023/08/25 04:35:54;;;;;;;1.70;1.40;;;21.20;99.90;;;;;;4976651;28;20201;-68
2023/08/25 04:38:19;;;;;;;1.37;1.17;;;21.20;99.90;;;;;;4978018;28;20180;-68
2023/08/25 04:40:45;;;;;;;1.40;1.30;;;21.10;99.90;;;;;;4978077;28;20204;-68
2023/08/25 04:43:10;;;;;;;1.60;1.53;;;21.10;99.90;;;;;;4978119;28;20619;-68
2023/08/25 04:45:36;;;;;;;2.50;1.80;;;21.10;99.90;;;;;;4976588;28;20196;-68
2023/08/25 04:48:02;;;;;;;1.63;1.53;;;21.10;99.90;;;;;;4977753;28;20164;-68
2023/08/25 04:50:27;;;;;;;1.53;1.43;;;21.10;99.90;;;;;;4977279;28;20423;-69
2023/08/25 04:52:53;;;;;;;1.70;1.60;;;21.10;99.90;;;;;;4960259;28;20176;-69
2023/08/25 04:55:19;;;;;;;1.60;1.50;;;21.10;99.90;;;;;;4977436;28;20207;-64
2023/08/25 04:57:45;;;;;;;1.40;1.30;;;21.20;99.90;;;;;;4977440;28;20238;-63
2023/08/25 05:00:11;;;;;;;1.63;1.53;;;21.20;99.90;;;;;;4977021;28;20207;-63
2023/08/25 05:02:37;;;;;;;1.60;1.50;;;21.20;99.90;;;;;;4977483;28;20466;-66
2023/08/25 05:05:05;;;;;;;4.10;1.60;;;21.20;99.90;;;;;;4976761;28;20414;-66
2023/08/25 05:07:30;;;;;;;2.87;1.90;;;21.20;99.90;;;;;;4977269;28;20188;-64
2023/08/25 05:09:56;;;;;;;3.37;2.00;;;21.30;99.90;;;;;;4977144;28;20445;-67
2023/08/25 05:12:21;;;;;;;1.73;1.63;;;21.40;99.90;;;;;;4977297;28;20173;-65
2023/08/25 05:14:47;;;;;;;1.40;1.40;;;21.40;99.90;;;;;;4976547;28;20258;-65
2023/08/25 05:17:13;;;;;;;1.27;1.17;;;21.60;99.90;;;;;;4977248;28;20184;-65
2023/08/25 05:19:39;;;;;;;1.40;1.30;;;21.70;99.90;;;;;;4971471;28;20674;-66
2023/08/25 05:22:04;;;;;;;1.67;1.57;;;21.80;99.90;;;;;;4958019;28;20175;-65
2023/08/25 05:24:30;;;;;;;1.50;1.40;;;22.00;99.90;;;;;;4956821;28;20166;-65
2023/08/25 05:26:56;;;;;;;2.13;1.50;;;22.10;99.90;;;;;;4957894;28;20197;-64
2023/08/25 05:29:27;;;;;;;2.20;1.77;;;22.20;99.90;;;;;;4959472;28;20835;-64
2023/08/25 05:31:53;;;;;;;1.60;1.50;;;22.30;99.90;;;;;;4977144;28;20178;-64
2023/08/25 05:34:20;;;;;;;1.50;1.40;;;22.30;99.90;;;;;;4976409;28;20421;-65
2023/08/25 05:36:46;;;;;;;1.20;1.17;;;22.40;99.90;;;;;;4976766;28;20918;-65
2023/08/25 05:39:12;;;;;;;1.40;1.40;;;22.50;99.90;;;;;;4976792;28;20377;-67
2023/08/25 05:41:37;;;;;;;1.40;1.17;;;22.50;99.90;;;;;;4976894;28;20924;-67
2023/08/25 05:44:03;;;;;;;1.57;1.47;;;22.60;99.90;;;;;;4976279;28;20420;-67
2023/08/25 05:46:30;;;;;;;1.73;1.63;;;22.70;99.90;;;;;;4976540;28;20401;-66
2023/08/25 05:48:56;;;;;;;3.33;1.70;;;22.70;99.90;;;;;;4976433;28;20378;-66
2023/08/25 05:51:22;;;;;;;1.70;1.60;;;22.90;99.90;;;;;;4976657;28;20494;-66
2023/08/25 05:53:47;;;;;;;1.37;1.27;;;23.00;99.90;;;;;;4976205;28;20447;-66
2023/08/25 05:56:13;;;;;;;1.60;1.50;;;23.10;99.90;;;;;;4958330;28;20661;-67
2023/08/25 05:58:40;;;;;;;2.87;2.23;;;23.20;99.90;;;;;;4975002;28;20728;-66
2023/08/25 06:01:06;;;;;;;1.97;1.87;;;23.20;99.90;;;;;;4975279;28;20200;-66
2023/08/25 06:03:32;;;;;;;1.10;1.10;;;23.30;99.90;;;;;;4974790;28;20462;-66
2023/08/25 06:05:57;;;;;;;1.47;1.37;;;23.30;99.90;;;;;;4975417;28;20194;-66
2023/08/25 06:08:23;;;;;;;1.27;1.27;;;23.30;99.90;;;;;;4957702;28;20903;-66
2023/08/25 06:10:52;;;;;;;1.00;0.90;;;23.30;99.90;;;;;;4975500;28;20211;-66
2023/08/25 06:13:17;;;;;;;1.63;1.53;;;23.30;99.90;;;;;;4974597;28;20267;-66
2023/08/25 06:15:43;;;;;;;1.33;1.23;;;23.30;99.90;;;;;;4975256;28;20445;-66
2023/08/25 06:18:09;;;;;;;2.10;1.73;;;23.20;99.90;;;;;;4975006;28;20183;-66
2023/08/25 06:20:35;;;;;;;1.80;1.70;;;23.20;99.90;;;;;;4975139;28;20263;-66
2023/08/25 06:23:01;;;;;;;2.80;1.90;;;23.10;99.90;;;;;;4975166;28;20176;-66
2023/08/25 06:25:26;;;;;;;1.87;1.60;;;23.00;99.90;;;;;;4974652;28;20410;-66
2023/08/25 06:27:52;;;;;;;1.50;1.37;;;22.90;99.90;;;;;;4974635;28;20176;-66
2023/08/25 06:30:18;;;;;;;2.60;1.60;;;22.70;99.90;;;;;;4974734;28;20642;-66
2023/08/25 06:32:44;;;;;;;1.03;1.03;;;22.60;99.90;;;;;;4974976;28;20388;-66
2023/08/25 06:35:14;;;;;;;1.97;1.87;;;22.60;99.90;;;;;;4972528;28;20438;-66
2023/08/25 06:37:39;;;;;;;2.77;1.60;;;22.50;99.90;;;;;;4973430;28;20409;-66
2023/08/25 06:40:07;;;;;;;1.73;1.40;;;22.50;99.90;;;;;;4970569;28;20458;-66
2023/08/25 06:42:33;;;;;;;1.80;1.70;;;22.50;99.90;;;;;;4973958;28;20185;-68
2023/08/25 06:44:59;;;;;;;1.60;1.47;;;22.40;99.90;;;;;;4973605;28;20754;-68
2023/08/25 06:47:25;;;;;;;1.77;1.67;;;22.50;99.90;;;;;;4974330;28;20382;-65
2023/08/25 06:49:51;;;;;;;2.40;2.30;;;22.40;99.90;;;;;;4957935;28;20176;-66
2023/08/25 06:52:16;;;;;;;1.10;1.10;;;22.40;99.90;;;;;;4975466;28;20441;-65
2023/08/25 06:54:42;;;;;;;2.30;2.20;;;22.30;99.90;;;;;;4974934;28;20267;-67
2023/08/25 06:57:17;;;;;;;2.07;1.90;;;22.20;99.90;;;;;;5070104;28;20535;-67
2023/08/25 06:59:43;;;;;;;2.37;1.20;;;22.20;99.90;;;;;;5070373;28;20956;-67
2023/08/25 07:02:08;;;;;;;1.83;1.73;;;22.10;99.90;;;;;;5069065;28;20173;-66
2023/08/25 07:04:34;;;;;;;1.90;1.53;;;22.00;99.90;;;;;;5070299;28;20184;-67
2023/08/25 07:07:00;;;;;;;1.60;1.50;;;21.90;99.90;;;;;;5070578;28;20656;-67
2023/08/25 07:09:28;;;;;;;1.80;1.70;;;21.90;99.90;;;;;;5070411;28;20180;-69
2023/08/25 07:11:54;;;;;;;2.17;1.97;;;21.80;99.90;;;;;;5055264;28;20383;-68
2023/08/25 07:14:19;;;;;;;1.67;1.57;;;21.70;99.90;;;;;;5049810;28;20895;-66
2023/08/25 07:16:45;;;;;;;2.30;2.10;;;21.60;99.90;;;;;;5049976;28;20466;-68
2023/08/25 07:19:11;;;;;;;3.63;2.60;;;21.50;99.90;;;;;;5050002;28;20182;-65
2023/08/25 07:21:37;;;;;;;2.00;1.90;;;21.40;99.90;;;;;;5049895;28;20428;-67
2023/08/25 07:24:03;;;;;;;2.00;1.90;;;21.30;99.90;;;;;;5049672;28;20162;-67
2023/08/25 07:26:29;;;;;;;1.67;1.57;;;21.20;99.90;;;;;;5063112;28;20529;-67
2023/08/25 07:28:54;;;;;;;2.17;2.07;;;21.10;99.90;;;;;;5069969;28;20450;-67
2023/08/25 07:31:20;;;;;;;2.37;2.17;;;21.10;99.90;;;;;;5069887;28;20172;-66
2023/08/25 07:33:46;;;;;;;2.17;2.07;;;21.00;99.90;;;;;;5069737;28;20179;-66
2023/08/25 07:36:11;;;;;;;3.27;2.97;;;21.00;99.90;;;;;;5058644;28;20240;-67
2023/08/25 07:38:37;;;;;;;2.00;1.90;;;20.90;99.90;;;;;;5049951;28;20247;-66
2023/08/25 07:41:03;;;;;;;3.13;2.83;;;20.90;99.90;;;;;;5048164;28;20173;-67
2023/08/25 07:43:28;;;;;;;2.80;2.60;;;20.80;99.90;;;;;;5049236;28;20375;-67
2023/08/25 07:45:54;;;;;;;2.20;2.10;;;20.80;99.90;;;;;;5049500;28;20190;-67
2023/08/25 07:48:21;;;;;;;2.20;2.00;;;20.70;99.90;;;;;;5049935;28;20240;-67
2023/08/25 07:50:48;;;;;;;2.50;2.40;;;20.70;99.90;;;;;;5058762;28;20480;-65
2023/08/25 07:53:13;;;;;;;5.73;2.60;;;20.60;99.90;;;;;;5069584;28;20403;-67
2023/08/25 07:55:40;;;;;;;1.97;1.80;;;20.60;99.90;;;;;;5059706;28;20471;-68
2023/08/25 07:58:13;;;;;;;2.30;2.20;;;20.60;99.90;;;;;;5049478;28;20177;-67
2023/08/25 08:00:40;;;;;;;3.00;2.80;;;20.60;99.90;;;;;;5049707;28;20375;-68
2023/08/25 08:03:10;;;;;;;2.47;2.17;;;20.50;99.90;;;;;;5052569;28;20451;-68
2023/08/25 08:05:38;;;;;;;1.90;1.80;;;20.50;99.90;;;;;;5068727;28;20394;-68
2023/08/25 08:08:04;;;;;;;1.60;1.50;;;20.50;99.90;;;;;;5059228;28;20410;-68
2023/08/25 08:10:29;;;;;;;3.50;2.53;;;20.40;99.90;;;;;;5054946;28;20408;-68
2023/08/25 08:12:55;;;;;;;4.03;2.20;;;20.40;99.90;;;;;;5035791;28;20886;-69
2023/08/25 08:15:21;;;;;;;1.93;1.77;;;20.40;99.90;;;;;;5040402;28;20198;-68
2023/08/25 08:17:47;;;;;;;2.30;2.10;;;20.40;99.90;;;;;;5055710;28;20462;-68
2023/08/25 08:20:12;;;;;;;1.77;1.67;;;20.30;99.90;;;;;;5047857;28;20202;-68
2023/08/25 08:22:40;;;;;;;2.57;2.37;;;20.30;99.90;;;;;;5035677;28;20174;-67
2023/08/25 08:25:09;;;;;;;1.53;1.43;;;20.30;99.90;;;;;;5034738;28;20406;-66
2023/08/25 08:27:34;;;;;;;5.10;2.13;;;20.30;99.90;;;;;;5046468;28;20963;-66
2023/08/25 08:30:00;;;;;;;1.70;1.60;;;20.30;99.90;;;;;;5054620;28;20470;-67
2023/08/25 08:32:26;;;;;;;1.20;1.20;;;20.30;99.90;;;;;;5045970;28;20536;-67
2023/08/25 08:34:51;;;;;;;1.53;1.40;;;20.30;99.90;;;;;;5034421;28;20193;-66
2023/08/25 08:37:17;;;;;;;1.77;1.67;;;20.20;99.90;;;;;;5034626;28;20401;-66
2023/08/25 08:39:44;;;;;;;1.80;1.60;;;20.20;99.90;;;;;;5033977;28;20174;-67
2023/08/25 08:42:14;;;;;;;1.80;1.70;;;20.20;99.90;;;;;;5035333;28;20174;-67
2023/08/25 08:44:45;;;;;;;2.83;1.80;;;20.10;99.90;;;;;;5034966;28;20435;-67
2023/08/25 08:47:11;;;;;;;1.40;1.30;;;20.10;99.90;;;;;;5035349;28;20728;-68
2023/08/25 08:49:38;;;;;;;2.00;1.53;;;20.00;99.90;;;;;;5035352;28;20413;-70
2023/08/25 08:52:05;;;;;;;1.77;1.63;;;20.00;99.90;;;;;;5035433;28;20217;-69
2023/08/25 08:54:32;;;;;;;1.70;1.60;;;19.90;99.90;;;;;;5034784;28;20413;-68
2023/08/25 08:56:59;;;;;;;2.30;2.10;;;19.90;99.90;;;;;;5034999;28;20427;-69
2023/08/25 08:59:25;;;;;;;2.20;2.00;;;19.80;99.90;;;;;;5035095;28;20376;-68
2023/08/25 09:01:52;;;;;;;4.63;2.43;;;19.80;99.90;;;;;;5034988;28;20700;-69
2023/08/25 09:04:22;;;;;;;2.20;2.10;;;19.80;99.90;;;;;;5034722;28;20659;-70
2023/08/25 09:06:52;;;;;;;1.70;1.60;;;19.70;99.90;;;;;;5034997;28;20387;-70
2023/08/25 09:09:21;;;;;;;2.70;2.40;;;19.70;99.90;;;;;;5045992;28;20470;-69
2023/08/25 09:11:48;;;;;;;2.60;2.27;;;19.70;99.90;;;;;;5054873;28;20382;-69
2023/08/25 09:14:26;;;;;;;2.07;1.57;;;19.70;99.90;;;;;;5054536;28;20394;-69
2023/08/25 09:17:00;;;;;;;2.10;2.00;;;19.80;99.90;;;;;;5055068;28;20542;-70
2023/08/25 09:19:33;;;;;;;2.10;1.97;;;19.80;99.90;;;;;;5052562;28;20388;-70
2023/08/25 09:22:01;;;;;;;1.90;1.80;;;19.90;99.90;;;;;;5054712;28;20479;-70
2023/08/25 09:24:26;;;;;;;2.93;1.90;;;19.90;99.90;;;;;;5054281;28;20379;-69
2023/08/25 09:26:52;;;;;;;1.70;1.60;;;20.00;99.90;;;;;;5053576;28;20477;-69
2023/08/25 09:29:18;;;;;;;2.57;2.37;;;20.00;99.90;;;;;;5054551;28;20176;-69
2023/08/25 09:31:44;;;;;;;3.10;2.90;;;20.00;99.90;;;;;;5054676;28;20628;-69
2023/08/25 09:34:14;;;;;;;2.10;2.00;;;20.10;99.90;;;;;;5054488;28;20200;-68
2023/08/25 09:36:51;;;;;;;2.37;2.17;;;20.20;99.90;;;;;;5054952;28;20426;-67
2023/08/25 09:39:17;;;;;;;2.93;2.50;;;20.40;99.90;;;;;;5054548;28;20461;-66
2023/08/25 09:41:44;;;;;;;1.83;1.73;;;20.60;99.90;;;;;;5054642;28;20400;-67
2023/08/25 09:44:10;;;;;;;1.93;1.83;;;20.80;99.90;;;;;;5041764;28;20178;-67
2023/08/25 09:46:36;;;;;;;2.40;2.30;;;20.90;99.90;;;;;;5051367;28;20425;-67
2023/08/25 09:49:07;;;;;;;2.13;1.93;;;21.00;99.90;;;;;;5034312;28;20906;-68
2023/08/25 09:51:42;;;;;;;1.63;1.53;;;21.10;99.90;;;;;;5051339;28;20429;-69
2023/08/25 09:54:18;;;;;;;1.40;1.40;;;21.30;99.90;;;;;;5053837;28;20410;-67
2023/08/25 09:56:46;;;;;;;3.23;1.57;;;21.50;99.90;;;;;;5053808;28;20555;-66
2023/08/25 09:59:13;;;;;;;1.93;1.73;;;21.80;99.90;;;;;;5053969;28;20413;-65
2023/08/25 10:01:42;;;;;;;1.40;1.40;;;22.00;99.90;;;;;;5053993;28;20864;-67
2023/08/25 10:04:07;;;;;;;2.23;1.63;;;22.30;99.90;;;;;;5053503;28;20383;-67
2023/08/25 10:06:35;;;;;;;1.17;1.17;;;22.60;99.90;;;;;;5053879;28;20528;-67
2023/08/25 10:09:03;;;;;;;1.47;1.37;;;23.00;99.90;;;;;;5045219;28;20178;-66
2023/08/25 10:11:38;;;;;;;1.90;1.80;;;23.40;99.90;;;;;;5032766;28;20424;-63
2023/08/25 10:14:10;;;;;;;1.60;1.50;;;23.80;99.90;;;;;;5033659;28;20416;-62
2023/08/25 10:16:59;;;;;;;1.90;1.80;;;24.20;99.90;;;;;;5033678;28;20793;-64
2023/08/25 10:19:27;;;;;;;2.03;1.60;;;24.30;99.90;;;;;;5033906;28;20503;-63
2023/08/25 10:21:55;;;;;;;2.20;2.10;;;24.20;99.90;;;;;;5033780;28;20375;-64
2023/08/25 10:24:28;;;;;;;1.97;1.70;;;24.00;99.90;;;;;;5033464;28;20380;-65
2023/08/25 10:26:55;;;;;;;1.47;1.37;;;23.90;99.90;;;;;;5033886;28;20401;-66
2023/08/25 10:29:23;;;;;;;2.10;1.93;;;23.80;99.90;;;;;;5033700;28;20395;-67
2023/08/25 10:31:54;;;;;;;2.37;2.20;;;23.70;99.90;;;;;;5033342;28;20383;-70
2023/08/25 10:34:37;;;;;;;1.80;1.70;;;23.70;99.90;;;;;;5033001;28;20397;-68
2023/08/25 10:37:11;;;;;;;2.30;1.83;;;23.70;99.90;;;;;;5033409;28;20531;-68
2023/08/25 10:39:50;;;;;;;2.10;1.97;;;23.70;99.90;;;;;;5033522;28;20734;-70
2023/08/25 10:42:25;;;;;;;1.43;1.33;;;23.60;99.90;;;;;;5033306;28;20405;-67
2023/08/25 10:45:01;;;;;;;2.20;2.00;;;23.50;99.90;;;;;;5033074;28;20424;-68
2023/08/25 10:47:27;;;;;;;1.40;1.30;;;23.40;99.90;;;;;;5033433;28;20411;-67
2023/08/25 10:50:00;;;;;;;3.20;2.10;;;23.40;99.90;;;;;;5032006;28;20877;-68
2023/08/25 10:52:26;;;;;;;2.00;1.60;;;23.20;99.90;;;;;;5033358;28;20397;-67
2023/08/25 10:54:53;;;;;;;1.77;1.67;;;23.20;99.90;;;;;;5032828;28;20392;-66
2023/08/25 10:57:20;;;;;;;1.80;1.70;;;23.20;99.90;;;;;;5033255;28;20200;-68
2023/08/25 10:59:51;;;;;;;1.37;1.27;;;23.20;99.90;;;;;;5033381;28;20740;-66
2023/08/25 11:02:36;;;;;;;1.40;1.30;;;23.40;99.90;;;;;;5033335;28;20777;-69
2023/08/25 11:05:33;;;;;;;1.50;1.40;;;23.60;99.90;;;;;;5032754;28;20392;-70
2023/08/25 11:08:03;;;;;;;2.30;2.07;;;23.70;99.90;;;;;;5033031;28;20398;-67
2023/08/25 11:10:35;;;;;;;2.00;1.73;;;23.90;99.90;;;;;;5053308;28;20408;-68
2023/08/25 11:13:08;;;;;;;1.40;1.30;;;24.10;99.90;;;;;;5053235;28;20754;-67
2023/08/25 11:15:38;;;;;;;1.20;1.20;;;24.20;99.90;;;;;;5052451;28;20463;-66
2023/08/25 11:18:04;;;;;;;2.07;1.97;;;24.40;99.90;;;;;;5053160;28;20741;-67
2023/08/25 11:20:29;;;;;;;1.70;1.60;;;24.50;99.90;;;;;;5052918;28;20412;-66
2023/08/25 11:22:58;;;;;;;1.50;1.40;;;24.70;99.90;;;;;;5052946;28;20383;-66
2023/08/25 11:25:28;;;;;;;2.40;2.20;;;24.80;99.90;;;;;;5052465;28;20716;-66
2023/08/25 11:27:54;;;;;;;2.00;1.57;;;24.80;99.90;;;;;;5052850;28;20371;-66
2023/08/25 11:30:21;;;;;;;1.60;1.50;;;24.80;99.90;;;;;;5052811;28;20786;-66
2023/08/25 11:32:50;;;;;;;1.93;1.80;;;24.80;99.90;;;;;;5052788;28;20395;-67
2023/08/25 11:35:16;;;;;;;1.77;1.67;;;24.90;99.90;;;;;;5052431;28;20469;-67
2023/08/25 11:37:45;;;;;;;2.40;2.20;;;24.80;99.90;;;;;;5052931;28;20491;-67
2023/08/25 11:40:12;;;;;;;1.80;1.70;;;24.90;99.90;;;;;;5052843;28;20385;-66
2023/08/25 11:42:40;;;;;;;2.00;1.90;;;24.90;99.90;;;;;;5054240;28;20394;-66
2023/08/25 11:45:12;;;;;;;3.60;2.53;;;24.90;99.90;;;;;;5055919;28;20435;-66
2023/08/25 11:47:38;;;;;;;2.53;2.33;;;25.00;99.90;;;;;;5055198;28;20802;-67
2023/08/25 11:50:05;;;;;;;2.30;2.03;;;25.10;99.90;;;;;;5056398;28;20386;-66
2023/08/25 11:52:34;;;;;;;2.10;2.00;;;25.10;99.90;;;;;;5056468;28;20770;-66
2023/08/25 11:55:00;;;;;;;2.50;1.80;;;25.10;99.90;;;;;;5055826;28;20463;-66
2023/08/25 11:57:37;;;;;;;2.67;2.47;;;25.10;99.90;;;;;;5056255;28;20400;-66
2023/08/25 12:00:05;;;;;;;1.97;1.87;;;25.10;99.90;;;;;;5056288;28;20381;-66
2023/08/25 12:02:30;;;;;;;2.73;2.53;;;25.00;99.90;;;;;;5056405;28;20432;-66
2023/08/25 12:04:57;;;;;;;2.40;2.10;;;25.00;99.90;;;;;;5055632;28;20782;-66
2023/08/25 12:07:27;;;;;;;3.87;2.57;;;25.00;99.90;;;;;;5056260;28;20173;-66
2023/08/25 12:10:00;;;;;;;1.77;1.67;;;25.00;99.90;;;;;;5040070;28;20452;-66
2023/08/25 12:12:30;;;;;;;2.97;2.77;;;25.10;99.90;;;;;;5036355;28;20387;-66
2023/08/25 12:14:56;;;;;;;2.00;1.90;;;25.10;99.90;;;;;;5035855;28;20478;-66
2023/08/25 12:17:27;;;;;;;2.50;2.30;;;25.10;99.90;;;;;;5036142;28;20383;-67
2023/08/25 12:19:53;;;;;;;2.33;2.13;;;25.10;99.90;;;;;;5036151;28;20261;-64
2023/08/25 12:22:19;;;;;;;1.93;1.83;;;25.10;99.90;;;;;;5035925;28;20409;-65
2023/08/25 12:24:45;;;;;;;1.93;1.83;;;25.20;99.90;;;;;;5035353;28;20424;-65
2023/08/25 12:27:11;;;;;;;2.13;2.00;;;25.10;99.90;;;;;;5035884;28;20228;-64
2023/08/25 12:29:37;;;;;;;2.27;2.13;;;25.10;99.90;;;;;;5035848;28;20384;-65
2023/08/25 12:32:09;;;;;;;2.60;2.40;;;25.10;99.90;;;;;;5035616;28;20213;-65
2023/08/25 12:34:36;;;;;;;2.30;1.97;;;25.10;99.90;;;;;;5035224;28;20399;-65
2023/08/25 12:37:03;;;;;;;1.67;1.57;;;25.10;99.90;;;;;;5035514;28;20426;-66
2023/08/25 12:39:29;;;;;;;2.47;2.27;;;25.10;99.90;;;;;;5035283;28;20407;-65
2023/08/25 12:41:55;;;;;;;1.97;1.87;;;25.10;99.90;;;;;;5035617;28;20391;-65
2023/08/25 12:44:21;;;;;;;2.00;1.90;;;25.20;99.90;;;;;;5035243;28;20380;-65
2023/08/25 12:46:47;;;;;;;2.20;2.00;;;25.10;99.90;;;;;;5035634;28;20759;-65
2023/08/25 12:49:14;;;;;;;1.60;1.50;;;25.10;99.90;;;;;;5035651;28;20387;-65
2023/08/25 12:51:39;;;;;;;3.43;2.30;;;25.10;99.90;;;;;;5035285;28;20162;-65
2023/08/25 12:54:15;;;;;;;3.13;2.00;;;25.10;99.90;;;;;;5033203;28;20435;-66
2023/08/25 12:56:42;;;;;;;2.60;2.40;;;25.10;99.90;;;;;;5040617;28;20208;-65
2023/08/25 12:59:07;;;;;;;3.03;2.20;;;25.10;99.90;;;;;;5044375;28;20498;-65
2023/08/25 13:01:33;;;;;;;2.33;2.20;;;25.10;99.90;;;;;;5034991;28;20500;-66
2023/08/25 13:03:59;;;;;;;2.10;1.90;;;25.30;99.90;;;;;;5034496;28;20181;-65
2023/08/25 13:06:24;;;;;;;2.80;2.60;;;25.40;99.90;;;;;;5034791;28;20190;-65
2023/08/25 13:08:50;;;;;;;2.10;2.00;;;25.60;99.90;;;;;;5035185;28;20249;-65
2023/08/25 13:11:15;;;;;;;3.90;2.73;;;25.80;99.90;;;;;;5035439;28;20617;-65
2023/08/25 13:13:41;;;;;;;3.73;3.30;;;25.90;99.90;;;;;;5045014;28;20194;-65
2023/08/25 13:16:08;;;;;;;2.93;2.70;;;26.10;99.90;;;;;;5050078;28;20210;-65
2023/08/25 13:18:34;;;;;;;2.87;2.10;;;26.30;99.90;;;;;;5054170;28;20170;-64
2023/08/25 13:21:00;;;;;;;2.63;2.40;;;26.50;99.90;;;;;;5054916;28;20438;-64
2023/08/25 13:23:26;;;;;;;2.90;2.23;;;26.60;99.90;;;;;;5054489;28;20375;-65
2023/08/25 13:25:51;;;;;;;3.10;2.27;;;26.80;99.90;;;;;;5054914;28;20195;-64
2023/08/25 13:28:17;;;;;;;3.00;2.80;;;27.00;99.90;;;;;;5054687;28;20171;-63
2023/08/25 13:30:43;;;;;;;3.00;2.80;;;27.10;99.90;;;;;;5054564;28;20637;-68
2023/08/25 13:33:09;;;;;;;3.20;2.90;;;27.20;99.90;;;;;;5054257;28;20182;-69
2023/08/25 13:35:36;;;;;;;3.03;2.83;;;27.30;99.90;;;;;;5053573;28;20196;-69
2023/08/25 13:38:02;;;;;;;2.93;2.70;;;27.40;99.90;;;;;;5054231;28;20248;-68
2023/08/25 13:40:28;;;;;;;3.33;2.63;;;27.50;99.90;;;;;;5054303;28;20378;-68
2023/08/25 13:42:53;;;;;;;2.70;2.50;;;27.60;99.90;;;;;;5054333;28;20698;-67
2023/08/25 13:45:19;;;;;;;2.90;2.70;;;27.80;99.90;;;;;;5053958;28;20647;-68
2023/08/25 13:47:46;;;;;;;2.37;2.17;;;27.90;99.90;;;;;;5054298;28;20248;-69
2023/08/25 13:50:12;;;;;;;3.57;2.47;;;28.00;99.90;;;;;;5053982;28;20570;-68
2023/08/25 13:52:37;;;;;;;3.03;2.47;;;28.00;99.90;;;;;;5053767;28;20379;-67
2023/08/25 13:55:03;;;;;;;3.00;2.80;;;28.20;99.90;;;;;;5053567;28;20201;-70
2023/08/25 13:57:30;;;;;;;2.93;2.73;;;28.20;99.90;;;;;;5053999;28;20651;-68
2023/08/25 13:59:56;;;;;;;2.60;2.40;;;28.30;99.90;;;;;;5052706;28;20726;-67
2023/08/25 14:02:22;;;;;;;4.30;2.57;;;28.30;99.90;;;;;;5053790;28;20474;-66
2023/08/25 14:04:48;;;;;;;2.20;2.10;;;28.40;99.90;;;;;;5052807;28;20555;-66
2023/08/25 14:07:13;;;;;;;2.83;2.53;;;28.50;99.90;;;;;;5053569;28;20178;-67
2023/08/25 14:09:39;;;;;;;3.17;2.90;;;28.50;99.90;;;;;;5053462;28;20184;-68
2023/08/25 14:12:04;;;;;;;2.93;2.63;;;28.50;99.90;;;;;;5053815;28;20524;-65
2023/08/25 14:14:32;;;;;;;4.23;3.10;;;28.50;99.90;;;;;;5051461;28;20181;-71
2023/08/25 14:16:59;;;;;;;3.30;3.10;;;28.60;99.90;;;;;;5053648;28;20190;-71
2023/08/25 14:19:25;;;;;;;3.23;2.93;;;28.70;99.90;;;;;;5053774;28;20860;-69
2023/08/25 14:21:51;;;;;;;2.63;2.43;;;28.80;99.90;;;;;;5053417;28;20411;-68
2023/08/25 14:24:18;;;;;;;2.90;2.70;;;28.80;99.90;;;;;;5052518;28;20181;-72
2023/08/25 14:26:45;;;;;;;3.03;2.73;;;28.80;99.90;;;;;;5053584;28;20387;-71
2023/08/25 14:29:10;;;;;;;3.20;2.90;;;28.80;99.90;;;;;;5053470;28;20416;-71
2023/08/25 14:31:36;;;;;;;2.73;2.53;;;28.90;99.90;;;;;;5053317;28;20493;-71
2023/08/25 14:34:04;;;;;;;2.70;2.50;;;28.80;99.90;;;;;;5052740;28;20227;-71
2023/08/25 14:36:29;;;;;;;2.90;2.70;;;28.80;99.90;;;;;;5052216;28;20205;-70
2023/08/25 14:38:56;;;;;;;2.87;2.67;;;28.80;99.90;;;;;;5051474;28;20950;-71
2023/08/25 14:41:22;;;;;;;3.20;3.00;;;28.80;99.90;;;;;;5053123;28;20169;-70
2023/08/25 14:43:47;;;;;;;3.13;2.93;;;28.80;99.90;;;;;;5051152;28;20408;-72
2023/08/25 14:46:13;;;;;;;3.13;2.83;;;28.80;99.90;;;;;;5051183;28;20223;-72
2023/08/25 14:48:39;;;;;;;3.27;2.97;;;28.70;99.90;;;;;;5051195;28;20181;-72
2023/08/25 14:51:04;;;;;;;3.57;3.27;;;28.70;99.90;;;;;;5051038;28;20178;-72
2023/08/25 14:53:30;;;;;;;3.50;3.20;;;28.70;99.90;;;;;;5050746;28;20394;-71
2023/08/25 14:55:56;;;;;;;3.00;2.70;;;28.60;99.90;;;;;;5050713;28;20368;-71
2023/08/25 14:58:23;;;;;;;3.53;3.23;;;28.50;99.90;;;;;;5050095;28;20177;-71
2023/08/25 15:00:55;;;;;;;2.53;2.37;;;28.50;99.90;;;;;;5051962;28;20166;-72
2023/08/25 15:03:21;;;;;;;3.20;3.00;;;28.40;99.90;;;;;;5051081;28;20405;-72
2023/08/25 15:05:47;;;;;;;3.47;2.93;;;28.30;99.90;;;;;;5052244;28;20432;-71
2023/08/25 15:08:12;;;;;;;3.50;3.20;;;28.40;99.90;;;;;;5051721;28;20397;-71
2023/08/25 15:10:44;;;;;;;3.87;3.07;;;28.40;99.90;;;;;;5053152;28;20204;-71
2023/08/25 15:13:09;;;;;;;2.60;2.40;;;28.40;99.90;;;;;;5051801;28;20169;-71
2023/08/25 15:15:35;;;;;;;3.87;2.80;;;28.20;99.90;;;;;;5052379;28;20434;-71
2023/08/25 15:18:01;;;;;;;2.27;2.13;;;28.00;99.90;;;;;;5055051;28;20248;-71
2023/08/25 15:20:26;;;;;;;2.87;2.67;;;28.00;99.90;;;;;;5057192;28;20168;-70
2023/08/25 15:22:52;;;;;;;4.07;2.83;;;27.90;99.90;;;;;;5056921;28;20176;-70
2023/08/25 15:25:18;;;;;;;2.73;2.57;;;27.70;99.90;;;;;;5056444;28;20187;-71
2023/08/25 15:27:44;;;;;;;2.90;2.63;;;27.70;99.90;;;;;;5056917;28;20850;-71
2023/08/25 15:30:11;;;;;;;5.00;3.10;;;27.60;99.90;;;;;;5056917;28;20191;-71
2023/08/25 15:32:36;;;;;;;2.80;2.60;;;27.60;99.90;;;;;;5056913;28;20706;-71
2023/08/25 15:35:03;;;;;;;2.70;2.30;;;27.50;99.90;;;;;;5055059;28;20442;-71
2023/08/25 15:37:29;;;;;;;2.97;2.67;;;27.40;99.90;;;;;;5042613;28;20256;-71
2023/08/25 15:39:55;;;;;;;2.60;2.40;;;27.30;99.90;;;;;;5044664;28;20441;-70
2023/08/25 15:42:21;;;;;;;3.10;2.47;;;27.20;99.90;;;;;;5056810;28;20807;-70
2023/08/25 15:44:46;;;;;;;2.67;2.47;;;27.10;99.90;;;;;;5054821;28;20419;-68
2023/08/25 15:47:12;;;;;;;2.60;2.40;;;27.10;99.90;;;;;;5055054;28;20187;-70
2023/08/25 15:49:37;;;;;;;2.57;2.37;;;27.00;99.90;;;;;;5056447;28;20286;-70
2023/08/25 15:52:03;;;;;;;2.47;2.30;;;26.90;99.90;;;;;;5056404;28;20176;-69
2023/08/25 15:54:29;;;;;;;3.27;3.00;;;26.80;99.90;;;;;;5055796;28;20731;-68
2023/08/25 15:56:54;;;;;;;2.80;2.60;;;26.60;99.90;;;;;;5056145;28;20276;-68
2023/08/25 15:59:20;;;;;;;4.47;2.40;;;26.50;99.90;;;;;;5056103;28;20691;-68
2023/08/25 16:01:45;;;;;;;2.50;2.30;;;26.30;99.90;;;;;;5056159;28;20174;-68
2023/08/25 16:04:11;;;;;;;2.67;2.47;;;26.30;99.90;;;;;;5055703;28;20632;-70
2023/08/25 16:06:37;;;;;;;2.60;2.40;;;26.20;99.90;;;;;;5056094;28;20197;-70
2023/08/25 16:09:02;;;;;;;3.23;3.00;;;26.20;99.90;;;;;;5055754;28;20173;-71
2023/08/25 16:11:28;;;;;;;2.53;2.33;;;26.20;99.90;;;;;;5056196;28;20531;-71
2023/08/25 16:13:53;;;;;;;3.20;2.63;;;26.10;99.90;;;;;;5046253;28;20178;-69
2023/08/25 16:16:19;;;;;;;2.43;2.27;;;26.10;99.90;;;;;;5044534;28;20205;-69
2023/08/25 16:18:46;;;;;;;2.93;2.73;;;26.00;99.90;;;;;;5047219;28;20169;-68
2023/08/25 16:21:12;;;;;;;2.80;2.60;;;26.00;99.90;;;;;;5038018;28;20200;-69
2023/08/25 16:23:41;;;;;;;2.83;2.43;;;26.00;99.90;;;;;;5055593;28;20382;-67
2023/08/25 16:26:08;;;;;;;2.27;2.00;;;26.00;99.90;;;;;;5055683;28;20410;-67
2023/08/25 16:28:34;;;;;;;3.07;2.27;;;26.00;99.90;;;;;;5055230;28;20729;-69
2023/08/25 16:31:03;;;;;;;2.40;2.10;;;25.90;99.90;;;;;;5055954;28;20382;-69
2023/08/25 16:33:30;;;;;;;2.60;2.40;;;25.90;99.90;;;;;;5055477;28;20865;-68
2023/08/25 16:35:55;;;;;;;3.90;3.60;;;25.90;99.90;;;;;;5055386;28;20529;-67
2023/08/25 16:38:21;;;;;;;2.70;2.47;;;25.90;99.90;;;;;;5055484;28;20439;-68
2023/08/25 16:40:49;;;;;;;2.80;2.60;;;25.90;99.90;;;;;;5055341;28;20199;-69
2023/08/25 16:43:14;;;;;;;5.30;2.17;;;25.90;99.90;;;;;;5055369;28;20227;-68
2023/08/25 16:45:40;;;;;;;2.30;2.20;;;25.80;99.90;;;;;;5053810;28;20402;-69
2023/08/25 16:48:06;;;;;;;2.20;2.10;;;25.90;99.90;;;;;;5049275;28;20267;-69
2023/08/25 16:50:33;;;;;;;2.43;2.30;;;25.90;99.90;;;;;;5035589;28;20256;-68
2023/08/25 16:53:01;;;;;;;2.83;2.53;;;25.80;99.90;;;;;;5035635;28;20439;-65
2023/08/25 16:55:27;;;;;;;2.60;2.40;;;25.70;99.90;;;;;;5034668;28;21020;-66